sensor_id;sensor_type;location;lat;lon;timestamp;pressure;altitude;pressure_sealevel;temperature;humidity
9969;BME280;5025;48.890;9.278;2023-04-25T00:02:20;98175.44;;;9.20;69.94
9969;BME280;5025;48.890;9.278;2023-04-25T00:04:45;98181.28;;;9.29;69.85
9969;BME280;5025;48.890;9.278;2023-04-25T00:07:11;98175.53;;;9.37;69.65
9969;BME280;5025;48.890;9.278;2023-04-25T00:09:36;98170.63;;;9.34;69.08
9969;BME280;5025;48.890;9.278;2023-04-25T00:12:02;98172.03;;;9.25;69.08
9969;BME280;5025;48.890;9.278;2023-04-25T00:14:27;98169.84;;;9.22;69.49
9969;BME280;5025;48.890;9.278;2023-04-25T00:16:53;98176.03;;;9.22;69.66
9969;BME280;5025;48.890;9.278;2023-04-25T00:19:19;98172.72;;;9.32;69.16
9969;BME280;5025;48.890;9.278;2023-04-25T00:21:44;98181.53;;;9.39;68.88
9969;BME280;5025;48.890;9.278;2023-04-25T00:24:11;98181.41;;;9.34;69.11
9969;BME280;5025;48.890;9.278;2023-04-25T00:26:36;98168.53;;;9.36;69.03
9969;BME280;5025;48.890;9.278;2023-04-25T00:29:02;98166.97;;;9.40;68.89
9969;BME280;5025;48.890;9.278;2023-04-25T00:31:27;98165.47;;;9.44;68.54
9969;BME280;5025;48.890;9.278;2023-04-25T00:33:54;98164.50;;;9.50;68.54
9969;BME280;5025;48.890;9.278;2023-04-25T00:36:19;98169.09;;;9.50;68.82
9969;BME280;5025;48.890;9.278;2023-04-25T00:38:44;98167.44;;;9.49;68.56
9969;BME280;5025;48.890;9.278;2023-04-25T00:41:10;98173.88;;;9.48;68.80
9969;BME280;5025;48.890;9.278;2023-04-25T00:43:36;98168.84;;;9.40;69.01
9969;BME280;5025;48.890;9.278;2023-04-25T00:46:02;98168.28;;;9.38;69.11
9969;BME280;5025;48.890;9.278;2023-04-25T00:48:27;98165.00;;;9.36;69.24
9969;BME280;5025;48.890;9.278;2023-04-25T00:50:54;98155.75;;;9.31;69.61
9969;BME280;5025;48.890;9.278;2023-04-25T00:53:21;98152.69;;;9.28;69.66
9969;BME280;5025;48.890;9.278;2023-04-25T00:55:47;98152.25;;;9.19;70.36
9969;BME280;5025;48.890;9.278;2023-04-25T00:58:13;98149.78;;;9.18;71.07
9969;BME280;5025;48.890;9.278;2023-04-25T01:00:39;98135.50;;;9.17;71.48
9969;BME280;5025;48.890;9.278;2023-04-25T01:03:05;98140.78;;;9.12;71.63
9969;BME280;5025;48.890;9.278;2023-04-25T01:05:31;98139.97;;;9.11;72.04
9969;BME280;5025;48.890;9.278;2023-04-25T01:07:56;98137.75;;;9.20;71.64
9969;BME280;5025;48.890;9.278;2023-04-25T01:10:22;98141.91;;;9.28;71.21
9969;BME280;5025;48.890;9.278;2023-04-25T01:12:47;98146.50;;;9.27;71.07
9969;BME280;5025;48.890;9.278;2023-04-25T01:15:12;98135.97;;;9.26;71.11
9969;BME280;5025;48.890;9.278;2023-04-25T01:17:38;98138.66;;;9.26;71.17
9969;BME280;5025;48.890;9.278;2023-04-25T01:20:06;98131.84;;;9.23;71.28
9969;BME280;5025;48.890;9.278;2023-04-25T01:22:34;98138.88;;;9.24;71.20
9969;BME280;5025;48.890;9.278;2023-04-25T01:25:00;98144.50;;;9.23;71.07
9969;BME280;5025;48.890;9.278;2023-04-25T01:27:25;98138.56;;;9.21;71.31
9969;BME280;5025;48.890;9.278;2023-04-25T01:29:51;98134.81;;;9.22;71.24
9969;BME280;5025;48.890;9.278;2023-04-25T01:32:17;98135.63;;;9.22;71.29
9969;BME280;5025;48.890;9.278;2023-04-25T01:34:43;98138.78;;;9.19;71.34
9969;BME280;5025;48.890;9.278;2023-04-25T01:37:08;98137.84;;;9.13;71.56
9969;BME280;5025;48.890;9.278;2023-04-25T01:39:34;98134.94;;;9.03;72.30
9969;BME280;5025;48.890;9.278;2023-04-25T01:41:59;98127.56;;;8.99;72.82
9969;BME280;5025;48.890;9.278;2023-04-25T01:44:25;98134.22;;;8.96;72.79
9969;BME280;5025;48.890;9.278;2023-04-25T01:46:51;98131.88;;;9.00;72.77
9969;BME280;5025;48.890;9.278;2023-04-25T01:49:16;98130.34;;;8.92;72.82
9969;BME280;5025;48.890;9.278;2023-04-25T01:51:41;98134.94;;;8.91;72.70
9969;BME280;5025;48.890;9.278;2023-04-25T01:54:08;98133.66;;;8.94;72.60
9969;BME280;5025;48.890;9.278;2023-04-25T01:56:36;98128.84;;;8.96;72.55
9969;BME280;5025;48.890;9.278;2023-04-25T01:59:03;98130.25;;;8.99;72.43
9969;BME280;5025;48.890;9.278;2023-04-25T02:01:29;98132.81;;;9.05;71.93
9969;BME280;5025;48.890;9.278;2023-04-25T02:03:54;98135.63;;;9.10;71.69
9969;BME280;5025;48.890;9.278;2023-04-25T02:06:19;98133.06;;;9.04;71.94
9969;BME280;5025;48.890;9.278;2023-04-25T02:08:45;98131.06;;;8.99;72.18
9969;BME280;5025;48.890;9.278;2023-04-25T02:11:10;98123.69;;;8.94;72.49
9969;BME280;5025;48.890;9.278;2023-04-25T02:13:35;98128.25;;;8.94;72.88
9969;BME280;5025;48.890;9.278;2023-04-25T02:16:01;98129.66;;;8.85;72.68
9969;BME280;5025;48.890;9.278;2023-04-25T02:18:26;98134.56;;;8.76;73.46
9969;BME280;5025;48.890;9.278;2023-04-25T02:20:51;98133.72;;;8.64;74.40
9969;BME280;5025;48.890;9.278;2023-04-25T02:23:17;98128.22;;;8.70;74.33
9969;BME280;5025;48.890;9.278;2023-04-25T02:25:44;98125.44;;;8.77;73.80
9969;BME280;5025;48.890;9.278;2023-04-25T02:28:09;98118.19;;;8.77;73.64
9969;BME280;5025;48.890;9.278;2023-04-25T02:30:35;98119.22;;;8.76;73.77
9969;BME280;5025;48.890;9.278;2023-04-25T02:33:00;98116.91;;;8.80;73.71
9969;BME280;5025;48.890;9.278;2023-04-25T02:35:25;98120.28;;;8.75;73.95
9969;BME280;5025;48.890;9.278;2023-04-25T02:37:51;98120.03;;;8.65;74.80
9969;BME280;5025;48.890;9.278;2023-04-25T02:40:16;98112.66;;;8.60;74.94
9969;BME280;5025;48.890;9.278;2023-04-25T02:42:41;98112.78;;;8.54;75.53
9969;BME280;5025;48.890;9.278;2023-04-25T02:45:07;98112.91;;;8.59;75.40
9969;BME280;5025;48.890;9.278;2023-04-25T02:47:33;98122.38;;;8.61;75.24
9969;BME280;5025;48.890;9.278;2023-04-25T02:49:58;98110.56;;;8.63;74.82
9969;BME280;5025;48.890;9.278;2023-04-25T02:52:23;98105.31;;;8.68;74.75
9969;BME280;5025;48.890;9.278;2023-04-25T02:54:48;98111.16;;;8.65;74.67
9969;BME280;5025;48.890;9.278;2023-04-25T02:57:14;98106.47;;;8.60;75.12
9969;BME280;5025;48.890;9.278;2023-04-25T02:59:39;98111.59;;;8.50;75.38
9969;BME280;5025;48.890;9.278;2023-04-25T03:02:05;98111.47;;;8.45;75.72
9969;BME280;5025;48.890;9.278;2023-04-25T03:04:30;98105.25;;;8.44;75.88
9969;BME280;5025;48.890;9.278;2023-04-25T03:06:55;98105.22;;;8.32;76.57
9969;BME280;5025;48.890;9.278;2023-04-25T03:09:21;98108.72;;;8.33;76.40
9969;BME280;5025;48.890;9.278;2023-04-25T03:11:46;98108.13;;;8.19;77.29
9969;BME280;5025;48.890;9.278;2023-04-25T03:14:12;98103.66;;;8.13;77.87
9969;BME280;5025;48.890;9.278;2023-04-25T03:16:38;98104.00;;;8.16;78.06
9969;BME280;5025;48.890;9.278;2023-04-25T03:19:04;98094.78;;;8.24;77.57
9969;BME280;5025;48.890;9.278;2023-04-25T03:21:30;98102.41;;;8.27;77.28
9969;BME280;5025;48.890;9.278;2023-04-25T03:24:01;98089.63;;;8.22;77.33
9969;BME280;5025;48.890;9.278;2023-04-25T03:26:27;98090.25;;;8.24;77.35
9969;BME280;5025;48.890;9.278;2023-04-25T03:28:52;98086.94;;;8.11;78.20
9969;BME280;5025;48.890;9.278;2023-04-25T03:31:18;98097.09;;;8.08;78.73
9969;BME280;5025;48.890;9.278;2023-04-25T03:33:43;98099.31;;;8.12;78.96
9969;BME280;5025;48.890;9.278;2023-04-25T03:36:08;98097.09;;;8.08;79.04
9969;BME280;5025;48.890;9.278;2023-04-25T03:38:34;98096.63;;;8.12;78.96
9969;BME280;5025;48.890;9.278;2023-04-25T03:41:01;98097.25;;;8.14;78.94
9969;BME280;5025;48.890;9.278;2023-04-25T03:43:26;98099.19;;;8.06;79.02
9969;BME280;5025;48.890;9.278;2023-04-25T03:45:51;98099.78;;;8.08;79.04
9969;BME280;5025;48.890;9.278;2023-04-25T03:48:17;98100.50;;;8.16;78.97
9969;BME280;5025;48.890;9.278;2023-04-25T03:50:42;98099.00;;;8.20;78.76
9969;BME280;5025;48.890;9.278;2023-04-25T03:53:07;98102.16;;;8.17;78.55
9969;BME280;5025;48.890;9.278;2023-04-25T03:55:33;98106.91;;;8.15;78.22
9969;BME280;5025;48.890;9.278;2023-04-25T03:57:58;98098.16;;;8.07;78.53
9969;BME280;5025;48.890;9.278;2023-04-25T04:00:24;98102.00;;;8.12;78.67
9969;BME280;5025;48.890;9.278;2023-04-25T04:02:50;98093.84;;;8.18;77.97
9969;BME280;5025;48.890;9.278;2023-04-25T04:05:15;98100.72;;;8.14;77.98
9969;BME280;5025;48.890;9.278;2023-04-25T04:07:40;98097.78;;;8.04;78.25
9969;BME280;5025;48.890;9.278;2023-04-25T04:10:10;98096.50;;;8.06;78.46
9969;BME280;5025;48.890;9.278;2023-04-25T04:12:36;98099.88;;;8.02;78.21
9969;BME280;5025;48.890;9.278;2023-04-25T04:15:05;98099.41;;;8.05;78.08
9969;BME280;5025;48.890;9.278;2023-04-25T04:17:31;98087.84;;;8.04;78.02
9969;BME280;5025;48.890;9.278;2023-04-25T04:19:57;98088.94;;;8.15;77.73
9969;BME280;5025;48.890;9.278;2023-04-25T04:22:23;98090.78;;;8.15;77.65
9969;BME280;5025;48.890;9.278;2023-04-25T04:24:49;98101.09;;;8.18;77.49
9969;BME280;5025;48.890;9.278;2023-04-25T04:27:16;98097.31;;;8.07;77.54
9969;BME280;5025;48.890;9.278;2023-04-25T04:29:42;98104.81;;;8.05;77.94
9969;BME280;5025;48.890;9.278;2023-04-25T04:32:08;98117.22;;;8.06;77.80
9969;BME280;5025;48.890;9.278;2023-04-25T04:34:34;98115.31;;;8.06;77.85
9969;BME280;5025;48.890;9.278;2023-04-25T04:37:00;98126.41;;;7.98;78.21
9969;BME280;5025;48.890;9.278;2023-04-25T04:39:25;98121.16;;;8.03;78.04
9969;BME280;5025;48.890;9.278;2023-04-25T04:41:50;98109.31;;;7.93;78.22
9969;BME280;5025;48.890;9.278;2023-04-25T04:44:16;98112.91;;;7.86;78.82
9969;BME280;5025;48.890;9.278;2023-04-25T04:46:41;98107.09;;;7.89;79.02
9969;BME280;5025;48.890;9.278;2023-04-25T04:49:08;98115.44;;;8.00;78.98
9969;BME280;5025;48.890;9.278;2023-04-25T04:51:34;98128.53;;;8.08;78.28
9969;BME280;5025;48.890;9.278;2023-04-25T04:53:59;98124.13;;;8.14;78.16
9969;BME280;5025;48.890;9.278;2023-04-25T04:56:30;98131.22;;;8.08;78.13
9969;BME280;5025;48.890;9.278;2023-04-25T04:58:56;98133.22;;;8.13;78.38
9969;BME280;5025;48.890;9.278;2023-04-25T05:01:22;98136.06;;;8.18;78.25
9969;BME280;5025;48.890;9.278;2023-04-25T05:03:47;98144.03;;;8.24;77.74
9969;BME280;5025;48.890;9.278;2023-04-25T05:06:13;98138.75;;;8.18;77.97
9969;BME280;5025;48.890;9.278;2023-04-25T05:08:38;98144.78;;;8.01;78.53
9969;BME280;5025;48.890;9.278;2023-04-25T05:11:03;98143.78;;;7.84;78.52
9969;BME280;5025;48.890;9.278;2023-04-25T05:13:29;98146.25;;;7.85;78.93
9969;BME280;5025;48.890;9.278;2023-04-25T05:15:54;98148.75;;;7.80;79.08
9969;BME280;5025;48.890;9.278;2023-04-25T05:18:19;98147.19;;;7.91;78.71
9969;BME280;5025;48.890;9.278;2023-04-25T05:20:45;98142.09;;;8.01;78.46
9969;BME280;5025;48.890;9.278;2023-04-25T05:23:10;98146.00;;;7.87;78.41
9969;BME280;5025;48.890;9.278;2023-04-25T05:25:35;98142.72;;;7.85;78.78
9969;BME280;5025;48.890;9.278;2023-04-25T05:28:01;98134.31;;;7.93;78.74
9969;BME280;5025;48.890;9.278;2023-04-25T05:30:26;98142.03;;;7.89;77.49
9969;BME280;5025;48.890;9.278;2023-04-25T05:32:51;98148.53;;;7.82;77.85
9969;BME280;5025;48.890;9.278;2023-04-25T05:35:17;98151.53;;;7.74;77.97
9969;BME280;5025;48.890;9.278;2023-04-25T05:37:42;98151.53;;;7.74;78.77
9969;BME280;5025;48.890;9.278;2023-04-25T05:40:08;98151.69;;;7.79;78.81
9969;BME280;5025;48.890;9.278;2023-04-25T05:42:33;98148.69;;;7.87;78.72
9969;BME280;5025;48.890;9.278;2023-04-25T05:44:59;98151.28;;;7.94;78.66
9969;BME280;5025;48.890;9.278;2023-04-25T05:47:24;98144.50;;;7.91;78.71
9969;BME280;5025;48.890;9.278;2023-04-25T05:49:49;98150.44;;;7.93;78.91
9969;BME280;5025;48.890;9.278;2023-04-25T05:52:15;98150.28;;;8.06;78.82
9969;BME280;5025;48.890;9.278;2023-04-25T05:54:40;98149.09;;;8.02;78.49
9969;BME280;5025;48.890;9.278;2023-04-25T05:57:06;98148.72;;;7.99;78.43
9969;BME280;5025;48.890;9.278;2023-04-25T05:59:31;98142.91;;;8.02;78.51
9969;BME280;5025;48.890;9.278;2023-04-25T06:01:57;98139.53;;;8.06;78.55
9969;BME280;5025;48.890;9.278;2023-04-25T06:04:22;98144.09;;;8.06;78.02
9969;BME280;5025;48.890;9.278;2023-04-25T06:06:47;98147.41;;;8.20;77.87
9969;BME280;5025;48.890;9.278;2023-04-25T06:09:13;98148.72;;;8.29;77.60
9969;BME280;5025;48.890;9.278;2023-04-25T06:11:38;98146.28;;;8.39;77.00
9969;BME280;5025;48.890;9.278;2023-04-25T06:14:03;98152.47;;;8.28;76.87
9969;BME280;5025;48.890;9.278;2023-04-25T06:16:29;98154.34;;;8.39;76.78
9969;BME280;5025;48.890;9.278;2023-04-25T06:18:54;98152.44;;;8.47;76.79
9969;BME280;5025;48.890;9.278;2023-04-25T06:21:19;98149.72;;;8.47;76.87
9969;BME280;5025;48.890;9.278;2023-04-25T06:23:45;98148.75;;;8.41;76.60
9969;BME280;5025;48.890;9.278;2023-04-25T06:26:10;98141.69;;;8.28;76.80
9969;BME280;5025;48.890;9.278;2023-04-25T06:28:35;98145.72;;;8.37;76.64
9969;BME280;5025;48.890;9.278;2023-04-25T06:31:00;98139.22;;;8.57;76.15
9969;BME280;5025;48.890;9.278;2023-04-25T06:33:26;98139.19;;;8.45;74.41
9969;BME280;5025;48.890;9.278;2023-04-25T06:35:54;98140.44;;;8.42;74.73
9969;BME280;5025;48.890;9.278;2023-04-25T06:38:19;98129.47;;;8.44;74.71
9969;BME280;5025;48.890;9.278;2023-04-25T06:40:45;98135.47;;;8.58;74.35
9969;BME280;5025;48.890;9.278;2023-04-25T06:43:10;98139.47;;;8.67;74.01
9969;BME280;5025;48.890;9.278;2023-04-25T06:45:38;98133.84;;;8.57;73.47
9969;BME280;5025;48.890;9.278;2023-04-25T06:48:04;98126.81;;;8.56;72.12
9969;BME280;5025;48.890;9.278;2023-04-25T06:50:29;98124.03;;;8.74;71.86
9969;BME280;5025;48.890;9.278;2023-04-25T06:52:55;98129.19;;;8.88;71.10
9969;BME280;5025;48.890;9.278;2023-04-25T06:55:20;98145.22;;;8.94;70.43
9969;BME280;5025;48.890;9.278;2023-04-25T06:57:45;98136.69;;;8.97;69.99
9969;BME280;5025;48.890;9.278;2023-04-25T07:00:11;98140.09;;;8.93;69.69
9969;BME280;5025;48.890;9.278;2023-04-25T07:02:36;98135.75;;;9.04;69.66
9969;BME280;5025;48.890;9.278;2023-04-25T07:05:02;98147.81;;;8.89;70.08
9969;BME280;5025;48.890;9.278;2023-04-25T07:07:29;98146.97;;;8.89;70.71
9969;BME280;5025;48.890;9.278;2023-04-25T07:09:55;98142.88;;;9.10;70.41
9969;BME280;5025;48.890;9.278;2023-04-25T07:12:20;98141.13;;;9.15;70.16
9969;BME280;5025;48.890;9.278;2023-04-25T07:14:46;98149.31;;;9.21;70.33
9969;BME280;5025;48.890;9.278;2023-04-25T07:17:11;98141.84;;;8.99;70.07
9969;BME280;5025;48.890;9.278;2023-04-25T07:19:36;98141.81;;;8.87;70.34
9969;BME280;5025;48.890;9.278;2023-04-25T07:22:04;98147.22;;;8.99;70.30
9969;BME280;5025;48.890;9.278;2023-04-25T07:24:29;98140.56;;;9.02;70.62
9969;BME280;5025;48.890;9.278;2023-04-25T07:26:54;98148.16;;;9.17;70.50
9969;BME280;5025;48.890;9.278;2023-04-25T07:29:20;98153.28;;;9.18;70.45
9969;BME280;5025;48.890;9.278;2023-04-25T07:31:45;98152.22;;;9.31;70.01
9969;BME280;5025;48.890;9.278;2023-04-25T07:34:10;98154.56;;;9.39;69.68
9969;BME280;5025;48.890;9.278;2023-04-25T07:36:38;98162.84;;;9.49;69.60
9969;BME280;5025;48.890;9.278;2023-04-25T07:39:03;98158.53;;;9.48;69.41
9969;BME280;5025;48.890;9.278;2023-04-25T07:41:28;98156.31;;;9.45;69.51
9969;BME280;5025;48.890;9.278;2023-04-25T07:43:53;98152.91;;;9.50;69.39
9969;BME280;5025;48.890;9.278;2023-04-25T07:46:19;98157.94;;;9.58;69.13
9969;BME280;5025;48.890;9.278;2023-04-25T07:48:44;98164.84;;;9.66;69.00
9969;BME280;5025;48.890;9.278;2023-04-25T07:51:09;98167.91;;;9.58;69.36
9969;BME280;5025;48.890;9.278;2023-04-25T07:53:35;98176.34;;;9.49;70.10
9969;BME280;5025;48.890;9.278;2023-04-25T07:56:02;98178.09;;;9.56;69.83
9969;BME280;5025;48.890;9.278;2023-04-25T07:58:28;98181.50;;;9.51;70.31
9969;BME280;5025;48.890;9.278;2023-04-25T08:00:53;98186.78;;;9.58;70.24
9969;BME280;5025;48.890;9.278;2023-04-25T08:03:18;98190.63;;;9.62;70.30
9969;BME280;5025;48.890;9.278;2023-04-25T08:05:44;98183.13;;;9.64;70.12
9969;BME280;5025;48.890;9.278;2023-04-25T08:08:09;98190.66;;;9.50;71.53
9969;BME280;5025;48.890;9.278;2023-04-25T08:10:40;98187.97;;;9.38;72.81
9969;BME280;5025;48.890;9.278;2023-04-25T08:13:05;98191.38;;;9.45;72.62
9969;BME280;5025;48.890;9.278;2023-04-25T08:15:30;98194.28;;;9.32;73.66
9969;BME280;5025;48.890;9.278;2023-04-25T08:17:55;98202.41;;;9.20;75.65
9969;BME280;5025;48.890;9.278;2023-04-25T08:20:21;98197.34;;;9.24;76.01
9969;BME280;5025;48.890;9.278;2023-04-25T08:22:46;98198.63;;;9.33;76.18
9969;BME280;5025;48.890;9.278;2023-04-25T08:25:13;98210.00;;;9.47;75.72
9969;BME280;5025;48.890;9.278;2023-04-25T08:27:39;98213.38;;;9.54;75.57
9969;BME280;5025;48.890;9.278;2023-04-25T08:30:05;98217.00;;;9.60;75.63
9969;BME280;5025;48.890;9.278;2023-04-25T08:32:30;98220.03;;;9.63;75.14
9969;BME280;5025;48.890;9.278;2023-04-25T08:34:56;98225.56;;;9.68;74.97
9969;BME280;5025;48.890;9.278;2023-04-25T08:37:21;98218.84;;;9.71;74.85
9969;BME280;5025;48.890;9.278;2023-04-25T08:39:47;98227.31;;;9.75;74.87
9969;BME280;5025;48.890;9.278;2023-04-25T08:42:17;98228.69;;;9.77;74.95
9969;BME280;5025;48.890;9.278;2023-04-25T08:44:45;98236.31;;;9.80;74.95
9969;BME280;5025;48.890;9.278;2023-04-25T08:47:10;98234.78;;;9.84;74.96
9969;BME280;5025;48.890;9.278;2023-04-25T08:49:35;98246.13;;;9.86;74.92
9969;BME280;5025;48.890;9.278;2023-04-25T08:52:03;98248.59;;;9.88;75.03
9969;BME280;5025;48.890;9.278;2023-04-25T08:54:31;98245.91;;;9.88;75.02
9969;BME280;5025;48.890;9.278;2023-04-25T08:56:57;98250.00;;;9.91;75.18
9969;BME280;5025;48.890;9.278;2023-04-25T08:59:24;98250.00;;;9.91;75.22
9969;BME280;5025;48.890;9.278;2023-04-25T09:01:50;98251.91;;;9.90;75.21
9969;BME280;5025;48.890;9.278;2023-04-25T09:04:17;98255.97;;;9.93;75.39
9969;BME280;5025;48.890;9.278;2023-04-25T09:06:43;98262.44;;;9.92;75.20
9969;BME280;5025;48.890;9.278;2023-04-25T09:09:08;98263.50;;;9.91;75.25
9969;BME280;5025;48.890;9.278;2023-04-25T09:11:36;98264.53;;;9.90;75.25
9969;BME280;5025;48.890;9.278;2023-04-25T09:14:16;98259.63;;;9.86;75.25
9969;BME280;5025;48.890;9.278;2023-04-25T09:17:10;98275.81;;;9.86;75.35
9969;BME280;5025;48.890;9.278;2023-04-25T09:19:36;98278.16;;;9.83;75.50
9969;BME280;5025;48.890;9.278;2023-04-25T09:22:05;98281.56;;;9.78;75.64
9969;BME280;5025;48.890;9.278;2023-04-25T09:26:57;98289.19;;;9.46;75.93
9969;BME280;5025;48.890;9.278;2023-04-25T09:29:29;98290.56;;;9.13;76.88
9969;BME280;5025;48.890;9.278;2023-04-25T09:32:20;98289.63;;;9.07;77.66
9969;BME280;5025;48.890;9.278;2023-04-25T09:34:47;98292.06;;;8.97;77.95
9969;BME280;5025;48.890;9.278;2023-04-25T09:39:48;98301.78;;;8.98;77.90
9969;BME280;5025;48.890;9.278;2023-04-25T09:42:17;98305.06;;;9.00;77.79
9969;BME280;5025;48.890;9.278;2023-04-25T09:44:46;98307.53;;;9.02;77.60
9969;BME280;5025;48.890;9.278;2023-04-25T09:47:14;98307.53;;;9.02;77.48
9969;BME280;5025;48.890;9.278;2023-04-25T09:49:42;98307.66;;;9.07;77.36
9969;BME280;5025;48.890;9.278;2023-04-25T09:52:08;98315.28;;;9.10;77.27
9969;BME280;5025;48.890;9.278;2023-04-25T09:54:34;98316.78;;;9.06;77.27
9969;BME280;5025;48.890;9.278;2023-04-25T09:57:14;98319.13;;;9.02;nan
9969;BME280;5025;48.890;9.278;2023-04-25T09:59:46;98326.69;;;8.93;77.38
9969;BME280;5025;48.890;9.278;2023-04-25T10:02:17;98324.69;;;8.89;77.67
9969;BME280;5025;48.890;9.278;2023-04-25T10:04:44;98332.78;;;8.89;77.87
9969;BME280;5025;48.890;9.278;2023-04-25T10:07:13;98340.13;;;8.82;78.20
9969;BME280;5025;48.890;9.278;2023-04-25T10:09:39;98334.72;;;8.51;81.18
9969;BME280;5025;48.890;9.278;2023-04-25T10:12:05;98344.22;;;8.54;82.12
9969;BME280;5025;48.890;9.278;2023-04-25T10:14:31;98342.56;;;8.53;82.32
9969;BME280;5025;48.890;9.278;2023-04-25T10:16:57;98350.75;;;8.39;83.25
9969;BME280;5025;48.890;9.278;2023-04-25T10:19:24;98347.34;;;8.32;84.47
9969;BME280;5025;48.890;9.278;2023-04-25T10:21:52;98358.56;;;8.29;84.67
9969;BME280;5025;48.890;9.278;2023-04-25T10:24:20;98375.50;;;8.30;84.71
9969;BME280;5025;48.890;9.278;2023-04-25T10:26:46;98380.66;;;8.13;85.29
9969;BME280;5025;48.890;9.278;2023-04-25T10:29:12;98386.31;;;7.86;86.22
9969;BME280;5025;48.890;9.278;2023-04-25T10:31:45;98384.78;;;7.71;86.46
9969;BME280;5025;48.890;9.278;2023-04-25T10:34:12;98386.47;;;7.41;86.54
9969;BME280;5025;48.890;9.278;2023-04-25T10:36:37;98397.91;;;7.29;86.72
9969;BME280;5025;48.890;9.278;2023-04-25T10:39:06;98394.41;;;7.29;86.11
9969;BME280;5025;48.890;9.278;2023-04-25T10:41:45;98410.78;;;7.21;85.94
9969;BME280;5025;48.890;9.278;2023-04-25T10:44:11;98419.75;;;7.40;86.02
9969;BME280;5025;48.890;9.278;2023-04-25T10:46:38;98422.50;;;7.58;85.26
9969;BME280;5025;48.890;9.278;2023-04-25T10:49:03;98417.91;;;7.65;84.95
9969;BME280;5025;48.890;9.278;2023-04-25T10:51:33;98428.31;;;7.80;84.59
9969;BME280;5025;48.890;9.278;2023-04-25T10:54:04;98426.19;;;7.89;84.17
9969;BME280;5025;48.890;9.278;2023-04-25T10:56:48;98427.56;;;7.98;84.00
9969;BME280;5025;48.890;9.278;2023-04-25T10:59:16;98426.06;;;8.02;83.85
9969;BME280;5025;48.890;9.278;2023-04-25T11:01:46;98426.22;;;8.07;83.77
9969;BME280;5025;48.890;9.278;2023-04-25T11:04:23;98426.22;;;8.07;83.76
9969;BME280;5025;48.890;9.278;2023-04-25T11:09:48;98426.38;;;8.13;83.63
9969;BME280;5025;48.890;9.278;2023-04-25T11:12:14;98427.81;;;8.15;83.72
9969;BME280;5025;48.890;9.278;2023-04-25T11:14:40;98430.28;;;8.17;83.69
9969;BME280;5025;48.890;9.278;2023-04-25T11:17:05;98439.53;;;8.21;83.51
9969;BME280;5025;48.890;9.278;2023-04-25T11:19:31;98446.78;;;8.20;83.79
9969;BME280;5025;48.890;9.278;2023-04-25T11:21:58;98450.91;;;8.23;83.81
9969;BME280;5025;48.890;9.278;2023-04-25T11:24:34;98444.25;;;8.25;83.74
9969;BME280;5025;48.890;9.278;2023-04-25T11:27:04;98456.06;;;8.24;83.85
9969;BME280;5025;48.890;9.278;2023-04-25T11:29:32;98445.09;;;8.26;83.94
9969;BME280;5025;48.890;9.278;2023-04-25T11:31:59;98446.72;;;8.27;83.67
9969;BME280;5025;48.890;9.278;2023-04-25T11:34:26;98456.22;;;8.30;83.75
9969;BME280;5025;48.890;9.278;2023-04-25T11:36:53;98453.31;;;8.31;83.35
9969;BME280;5025;48.890;9.278;2023-04-25T11:39:19;98457.25;;;8.29;83.67
9969;BME280;5025;48.890;9.278;2023-04-25T11:41:44;98452.31;;;8.25;83.69
9969;BME280;5025;48.890;9.278;2023-04-25T11:44:10;98445.09;;;8.26;83.49
9969;BME280;5025;48.890;9.278;2023-04-25T11:46:35;98447.34;;;8.29;83.64
9969;BME280;5025;48.890;9.278;2023-04-25T11:49:01;98446.03;;;8.32;83.49
9969;BME280;5025;48.890;9.278;2023-04-25T11:51:26;98448.28;;;8.35;83.83
9969;BME280;5025;48.890;9.278;2023-04-25T11:53:52;98455.78;;;8.33;83.71
9969;BME280;5025;48.890;9.278;2023-04-25T11:56:17;98455.84;;;8.26;84.20
9969;BME280;5025;48.890;9.278;2023-04-25T12:01:32;98456.13;;;8.18;84.36
9969;BME280;5025;48.890;9.278;2023-04-25T12:03:58;98458.31;;;8.02;85.56
9969;BME280;5025;48.890;9.278;2023-04-25T12:06:37;98459.03;;;7.91;86.51
9969;BME280;5025;48.890;9.278;2023-04-25T12:09:07;98467.09;;;7.91;86.92
9969;BME280;5025;48.890;9.278;2023-04-25T12:11:41;98461.34;;;7.87;87.04
9969;BME280;5025;48.890;9.278;2023-04-25T12:14:06;98471.03;;;7.63;86.08
9969;BME280;5025;48.890;9.278;2023-04-25T12:16:45;98469.66;;;7.54;87.01
9969;BME280;5025;48.890;9.278;2023-04-25T12:19:15;98467.81;;;7.54;88.66
9969;BME280;5025;48.890;9.278;2023-04-25T12:21:41;98487.06;;;7.51;87.93
9969;BME280;5025;48.890;9.278;2023-04-25T12:24:17;98470.13;;;7.44;88.65
9969;BME280;5025;48.890;9.278;2023-04-25T12:27:05;98470.19;;;7.38;89.56
9969;BME280;5025;48.890;9.278;2023-04-25T12:29:32;98473.16;;;7.23;90.14
9969;BME280;5025;48.890;9.278;2023-04-25T12:31:58;98476.06;;;7.21;90.42
9969;BME280;5025;48.890;9.278;2023-04-25T12:34:24;98481.00;;;7.24;90.72
9969;BME280;5025;48.890;9.278;2023-04-25T12:36:50;98480.94;;;7.31;91.24
9969;BME280;5025;48.890;9.278;2023-04-25T12:39:21;98479.69;;;7.33;91.07
9969;BME280;5025;48.890;9.278;2023-04-25T12:41:47;98479.09;;;7.31;90.36
9969;BME280;5025;48.890;9.278;2023-04-25T12:44:13;98473.47;;;7.40;90.32
9969;BME280;5025;48.890;9.278;2023-04-25T12:46:39;98482.66;;;7.57;90.02
9969;BME280;5025;48.890;9.278;2023-04-25T12:49:05;98483.00;;;7.67;89.04
9969;BME280;5025;48.890;9.278;2023-04-25T12:51:32;98484.56;;;7.82;88.51
9969;BME280;5025;48.890;9.278;2023-04-25T12:53:59;98494.44;;;7.88;89.03
9969;BME280;5025;48.890;9.278;2023-04-25T12:56:25;98490.50;;;7.90;89.39
9969;BME280;5025;48.890;9.278;2023-04-25T12:58:51;98496.53;;;8.11;89.42
9969;BME280;5025;48.890;9.278;2023-04-25T13:01:17;98491.56;;;8.33;88.49
9969;BME280;5025;48.890;9.278;2023-04-25T13:03:42;98502.69;;;8.43;87.98
9969;BME280;5025;48.890;9.278;2023-04-25T13:06:08;98493.72;;;8.50;86.10
9969;BME280;5025;48.890;9.278;2023-04-25T13:08:33;98487.38;;;8.63;85.68
